Airfield :
LOGIN :

Register | Disclaimer

   EN    FR    IT 

 










Legend :    VFR   Marginal VFR   IFR   Intensive IFR   Very Intensive IFR
Visi :
Ceiling :
>= 8 km
>= 3000ft
5 to 8 km
1000 to 3000 ft
1500m to 5 km
500 to 1000 ft
800 to 1500m
200 to 500 ft
< 800m
< 200 ft
Symbols :   Thunderstorms  Fog  Heavy snow  Heavy precipitations  Wind > 20 kt
SIGMETs :     Misc.  Thunderstorms  Icing  Turbulence  Mountain Waves  Volcanic Ashes






- Airport Elevation : 2077 ft
- IATA code : FMM


EDJA - Memmingen

CURRENT METAR :
  • 251950Z 22007KT 9999 FEW014 BKN016 OVC061 10/09 Q1012

EXPIRED METARs :
  • 251920Z 21009KT 9999 -RA FEW005 BKN013 OVC019 10/09 Q1012
  • 251850Z 22007KT 9999 -SHRA SCT008 BKN013TCU OVC018 10/09 Q1012 RERA
  • 251820Z 22006KT 9999 SCT021 BKN025 10/09 Q1012
  • 251750Z 21008KT 9999 -SHRA FEW024 SCT028TCU OVC060 10/09 Q1012
  • 251720Z 21007KT 9999 VCSH FEW021 SCT030TCU OVC053 11/10 Q1012

TAF TAF EDJA
Valid from the 25 at 18:00 until the 26 at 03:00 UTC


251700Z 2518/2603 29004KT 9999 BKN035
PROB30
TEMPO 2518/2521 4500 TSRA BKN009CB
TEMPO 2521/2603 3500 BR BKN006



MET'MAP, your aeronautical weather chart ! - Copyright ORBIFLY December 2007 - Disclaimer

ORBIFLY MET'MAP TEAM :

Programming & Development : Alexandra Zaïnal
Original concept : Baudouin d'Aumeries
Technical & hardware support : Manuel Goepfert
Assistance : Marc-Olivier Méhu




SOURCES & CREDITS :

   NOAA